sensor_id;sensor_type;location;lat;lon;timestamp;P1;durP1;ratioP1;P2;durP2;ratioP2
3000;SDS011;1510;51.072;6.678;2022-09-06T00:02:13;7.67;;;2.93;;
3000;SDS011;1510;51.072;6.678;2022-09-06T00:04:40;8.30;;;3.20;;
3000;SDS011;1510;51.072;6.678;2022-09-06T00:07:07;9.80;;;3.70;;
3000;SDS011;1510;51.072;6.678;2022-09-06T00:09:35;8.30;;;2.90;;
3000;SDS011;1510;51.072;6.678;2022-09-06T00:12:02;9.20;;;3.10;;
3000;SDS011;1510;51.072;6.678;2022-09-06T00:14:29;16.47;;;3.43;;
3000;SDS011;1510;51.072;6.678;2022-09-06T00:16:55;6.90;;;3.23;;
3000;SDS011;1510;51.072;6.678;2022-09-06T00:19:22;11.73;;;3.97;;
3000;SDS011;1510;51.072;6.678;2022-09-06T00:21:49;8.63;;;3.93;;
3000;SDS011;1510;51.072;6.678;2022-09-06T00:24:15;10.73;;;3.70;;
3000;SDS011;1510;51.072;6.678;2022-09-06T00:26:43;11.13;;;4.30;;
3000;SDS011;1510;51.072;6.678;2022-09-06T00:29:10;12.47;;;4.47;;
3000;SDS011;1510;51.072;6.678;2022-09-06T00:31:37;7.97;;;4.00;;
3000;SDS011;1510;51.072;6.678;2022-09-06T00:34:03;11.23;;;4.67;;
3000;SDS011;1510;51.072;6.678;2022-09-06T00:36:30;7.57;;;4.13;;
3000;SDS011;1510;51.072;6.678;2022-09-06T00:38:57;13.63;;;4.87;;
3000;SDS011;1510;51.072;6.678;2022-09-06T00:41:23;15.53;;;5.37;;
3000;SDS011;1510;51.072;6.678;2022-09-06T00:43:52;8.80;;;6.60;;
3000;SDS011;1510;51.072;6.678;2022-09-06T00:46:20;18.40;;;11.23;;
3000;SDS011;1510;51.072;6.678;2022-09-06T00:48:49;16.83;;;9.53;;
3000;SDS011;1510;51.072;6.678;2022-09-06T00:51:22;12.53;;;11.03;;
3000;SDS011;1510;51.072;6.678;2022-09-06T00:53:51;148.40;;;142.63;;
3000;SDS011;1510;51.072;6.678;2022-09-06T00:56:19;175.67;;;169.43;;
3000;SDS011;1510;51.072;6.678;2022-09-06T00:58:45;369.00;;;357.17;;
3000;SDS011;1510;51.072;6.678;2022-09-06T01:01:15;478.87;;;462.50;;
3000;SDS011;1510;51.072;6.678;2022-09-06T01:03:41;168.77;;;162.47;;
3000;SDS011;1510;51.072;6.678;2022-09-06T01:06:16;436.57;;;421.53;;
3000;SDS011;1510;51.072;6.678;2022-09-06T01:08:54;453.97;;;438.20;;
3000;SDS011;1510;51.072;6.678;2022-09-06T01:11:37;5.63;;;5.23;;
3000;SDS011;1510;51.072;6.678;2022-09-06T01:14:18;3.40;;;2.10;;
3000;SDS011;1510;51.072;6.678;2022-09-06T01:16:58;3.40;;;2.03;;
3000;SDS011;1510;51.072;6.678;2022-09-06T01:19:42;4.93;;;3.03;;
3000;SDS011;1510;51.072;6.678;2022-09-06T01:22:38;3.40;;;1.70;;
3000;SDS011;1510;51.072;6.678;2022-09-06T01:25:32;3.40;;;1.77;;
3000;SDS011;1510;51.072;6.678;2022-09-06T01:28:09;3.60;;;2.00;;
3000;SDS011;1510;51.072;6.678;2022-09-06T01:30:50;3.40;;;1.73;;
3000;SDS011;1510;51.072;6.678;2022-09-06T01:33:23;3.40;;;1.50;;
3000;SDS011;1510;51.072;6.678;2022-09-06T01:35:56;3.43;;;1.77;;
3000;SDS011;1510;51.072;6.678;2022-09-06T01:38:26;3.40;;;1.70;;
3000;SDS011;1510;51.072;6.678;2022-09-06T01:40:53;3.50;;;1.93;;
3000;SDS011;1510;51.072;6.678;2022-09-06T01:43:22;3.50;;;1.90;;
3000;SDS011;1510;51.072;6.678;2022-09-06T01:45:55;3.50;;;1.70;;
3000;SDS011;1510;51.072;6.678;2022-09-06T01:48:28;3.47;;;1.70;;
3000;SDS011;1510;51.072;6.678;2022-09-06T01:51:08;3.53;;;1.97;;
3000;SDS011;1510;51.072;6.678;2022-09-06T01:53:44;3.50;;;1.80;;
3000;SDS011;1510;51.072;6.678;2022-09-06T01:56:21;3.60;;;2.00;;
3000;SDS011;1510;51.072;6.678;2022-09-06T01:59:04;3.50;;;2.07;;
3000;SDS011;1510;51.072;6.678;2022-09-06T02:01:51;3.57;;;2.13;;
3000;SDS011;1510;51.072;6.678;2022-09-06T02:04:28;3.70;;;2.33;;
3000;SDS011;1510;51.072;6.678;2022-09-06T02:07:02;3.60;;;2.00;;
3000;SDS011;1510;51.072;6.678;2022-09-06T02:09:37;3.70;;;2.40;;
3000;SDS011;1510;51.072;6.678;2022-09-06T02:12:07;3.60;;;2.00;;
3000;SDS011;1510;51.072;6.678;2022-09-06T02:14:42;3.60;;;2.20;;
3000;SDS011;1510;51.072;6.678;2022-09-06T02:17:12;3.60;;;2.17;;
3000;SDS011;1510;51.072;6.678;2022-09-06T02:19:43;3.60;;;2.10;;
3000;SDS011;1510;51.072;6.678;2022-09-06T02:22:13;3.60;;;2.00;;
3000;SDS011;1510;51.072;6.678;2022-09-06T02:24:44;3.50;;;1.70;;
3000;SDS011;1510;51.072;6.678;2022-09-06T02:27:12;3.43;;;1.60;;
3000;SDS011;1510;51.072;6.678;2022-09-06T02:29:41;3.50;;;1.60;;
3000;SDS011;1510;51.072;6.678;2022-09-06T02:32:10;3.50;;;1.87;;
3000;SDS011;1510;51.072;6.678;2022-09-06T02:34:42;3.50;;;1.80;;
3000;SDS011;1510;51.072;6.678;2022-09-06T02:37:10;3.50;;;1.80;;
3000;SDS011;1510;51.072;6.678;2022-09-06T02:39:38;3.60;;;2.10;;
3000;SDS011;1510;51.072;6.678;2022-09-06T02:42:05;3.50;;;1.87;;
3000;SDS011;1510;51.072;6.678;2022-09-06T02:44:34;4.03;;;2.73;;
3000;SDS011;1510;51.072;6.678;2022-09-06T02:47:02;3.50;;;1.70;;
3000;SDS011;1510;51.072;6.678;2022-09-06T02:49:29;3.50;;;1.63;;
3000;SDS011;1510;51.072;6.678;2022-09-06T02:51:56;3.90;;;2.53;;
3000;SDS011;1510;51.072;6.678;2022-09-06T02:54:23;3.60;;;2.07;;
3000;SDS011;1510;51.072;6.678;2022-09-06T02:56:50;3.60;;;1.80;;
3000;SDS011;1510;51.072;6.678;2022-09-06T02:59:16;5.80;;;2.57;;
3000;SDS011;1510;51.072;6.678;2022-09-06T03:01:43;3.50;;;1.90;;
3000;SDS011;1510;51.072;6.678;2022-09-06T03:04:11;3.60;;;2.00;;
3000;SDS011;1510;51.072;6.678;2022-09-06T03:06:38;3.50;;;2.00;;
3000;SDS011;1510;51.072;6.678;2022-09-06T03:09:04;3.70;;;2.30;;
3000;SDS011;1510;51.072;6.678;2022-09-06T03:11:31;3.70;;;2.43;;
3000;SDS011;1510;51.072;6.678;2022-09-06T03:13:58;3.57;;;2.00;;
3000;SDS011;1510;51.072;6.678;2022-09-06T03:16:24;3.60;;;2.17;;
3000;SDS011;1510;51.072;6.678;2022-09-06T03:18:51;3.57;;;2.00;;
3000;SDS011;1510;51.072;6.678;2022-09-06T03:21:19;3.60;;;2.07;;
3000;SDS011;1510;51.072;6.678;2022-09-06T03:23:46;3.70;;;2.30;;
3000;SDS011;1510;51.072;6.678;2022-09-06T03:26:14;3.60;;;2.20;;
3000;SDS011;1510;51.072;6.678;2022-09-06T03:28:41;3.70;;;2.30;;
3000;SDS011;1510;51.072;6.678;2022-09-06T03:31:08;3.67;;;2.37;;
3000;SDS011;1510;51.072;6.678;2022-09-06T03:33:35;3.70;;;2.47;;
3000;SDS011;1510;51.072;6.678;2022-09-06T03:36:02;3.80;;;2.80;;
3000;SDS011;1510;51.072;6.678;2022-09-06T03:38:30;3.60;;;2.20;;
3000;SDS011;1510;51.072;6.678;2022-09-06T03:40:57;3.70;;;2.60;;
3000;SDS011;1510;51.072;6.678;2022-09-06T03:43:24;3.60;;;2.20;;
3000;SDS011;1510;51.072;6.678;2022-09-06T03:45:53;3.70;;;2.50;;
3000;SDS011;1510;51.072;6.678;2022-09-06T03:48:22;3.80;;;2.70;;
3000;SDS011;1510;51.072;6.678;2022-09-06T03:50:51;3.70;;;2.40;;
3000;SDS011;1510;51.072;6.678;2022-09-06T03:53:19;3.70;;;2.50;;
3000;SDS011;1510;51.072;6.678;2022-09-06T03:55:48;3.80;;;2.63;;
3000;SDS011;1510;51.072;6.678;2022-09-06T03:58:18;3.80;;;2.87;;
3000;SDS011;1510;51.072;6.678;2022-09-06T04:00:46;3.87;;;2.97;;
3000;SDS011;1510;51.072;6.678;2022-09-06T04:03:14;4.00;;;3.07;;
3000;SDS011;1510;51.072;6.678;2022-09-06T04:05:43;3.70;;;2.30;;
3000;SDS011;1510;51.072;6.678;2022-09-06T04:08:10;3.80;;;2.60;;
3000;SDS011;1510;51.072;6.678;2022-09-06T04:10:37;3.73;;;2.53;;
3000;SDS011;1510;51.072;6.678;2022-09-06T04:13:05;3.90;;;3.00;;
3000;SDS011;1510;51.072;6.678;2022-09-06T04:15:32;3.70;;;2.50;;
3000;SDS011;1510;51.072;6.678;2022-09-06T04:17:59;3.80;;;2.77;;
3000;SDS011;1510;51.072;6.678;2022-09-06T04:20:25;3.80;;;2.70;;
3000;SDS011;1510;51.072;6.678;2022-09-06T04:22:52;3.87;;;2.80;;
3000;SDS011;1510;51.072;6.678;2022-09-06T04:25:19;3.80;;;2.80;;
3000;SDS011;1510;51.072;6.678;2022-09-06T04:27:45;3.80;;;2.70;;
3000;SDS011;1510;51.072;6.678;2022-09-06T04:30:13;3.87;;;2.83;;
3000;SDS011;1510;51.072;6.678;2022-09-06T04:32:40;3.80;;;2.80;;
3000;SDS011;1510;51.072;6.678;2022-09-06T04:35:07;4.00;;;3.30;;
3000;SDS011;1510;51.072;6.678;2022-09-06T04:37:34;3.80;;;2.70;;
3000;SDS011;1510;51.072;6.678;2022-09-06T04:40:01;3.90;;;2.80;;
3000;SDS011;1510;51.072;6.678;2022-09-06T04:42:28;3.80;;;2.80;;
3000;SDS011;1510;51.072;6.678;2022-09-06T04:44:55;4.00;;;3.33;;
3000;SDS011;1510;51.072;6.678;2022-09-06T04:47:23;3.90;;;3.27;;
3000;SDS011;1510;51.072;6.678;2022-09-06T04:49:50;4.03;;;3.53;;
3000;SDS011;1510;51.072;6.678;2022-09-06T04:52:17;3.90;;;3.10;;
3000;SDS011;1510;51.072;6.678;2022-09-06T04:54:44;4.00;;;3.60;;
3000;SDS011;1510;51.072;6.678;2022-09-06T04:57:11;4.00;;;3.50;;
3000;SDS011;1510;51.072;6.678;2022-09-06T04:59:37;4.13;;;3.73;;
3000;SDS011;1510;51.072;6.678;2022-09-06T05:02:04;4.00;;;3.50;;
3000;SDS011;1510;51.072;6.678;2022-09-06T05:04:32;3.90;;;3.50;;
3000;SDS011;1510;51.072;6.678;2022-09-06T05:07:07;4.50;;;4.10;;
3000;SDS011;1510;51.072;6.678;2022-09-06T05:09:37;3.90;;;3.40;;
3000;SDS011;1510;51.072;6.678;2022-09-06T05:12:04;3.90;;;3.40;;
3000;SDS011;1510;51.072;6.678;2022-09-06T05:14:31;4.00;;;3.60;;
3000;SDS011;1510;51.072;6.678;2022-09-06T05:16:58;4.57;;;4.17;;
3000;SDS011;1510;51.072;6.678;2022-09-06T05:19:25;4.13;;;3.73;;
3000;SDS011;1510;51.072;6.678;2022-09-06T05:21:53;4.00;;;3.60;;
3000;SDS011;1510;51.072;6.678;2022-09-06T05:24:20;4.57;;;4.17;;
3000;SDS011;1510;51.072;6.678;2022-09-06T05:26:47;4.30;;;3.90;;
3000;SDS011;1510;51.072;6.678;2022-09-06T05:29:15;4.00;;;3.60;;
3000;SDS011;1510;51.072;6.678;2022-09-06T05:31:42;4.20;;;3.80;;
3000;SDS011;1510;51.072;6.678;2022-09-06T05:34:09;4.20;;;3.80;;
3000;SDS011;1510;51.072;6.678;2022-09-06T05:36:37;4.50;;;4.10;;
3000;SDS011;1510;51.072;6.678;2022-09-06T05:39:06;4.93;;;4.53;;
3000;SDS011;1510;51.072;6.678;2022-09-06T05:41:33;4.90;;;4.50;;
3000;SDS011;1510;51.072;6.678;2022-09-06T05:44:00;5.30;;;4.80;;
3000;SDS011;1510;51.072;6.678;2022-09-06T05:46:27;5.20;;;4.80;;
3000;SDS011;1510;51.072;6.678;2022-09-06T05:48:54;5.20;;;4.80;;
3000;SDS011;1510;51.072;6.678;2022-09-06T05:51:25;5.37;;;4.97;;
3000;SDS011;1510;51.072;6.678;2022-09-06T05:53:52;6.83;;;6.33;;
3000;SDS011;1510;51.072;6.678;2022-09-06T05:56:20;6.47;;;5.97;;
3000;SDS011;1510;51.072;6.678;2022-09-06T05:58:47;6.50;;;6.00;;
3000;SDS011;1510;51.072;6.678;2022-09-06T06:01:14;6.30;;;5.80;;
3000;SDS011;1510;51.072;6.678;2022-09-06T06:03:48;6.60;;;6.10;;
3000;SDS011;1510;51.072;6.678;2022-09-06T06:06:16;7.00;;;6.50;;
3000;SDS011;1510;51.072;6.678;2022-09-06T06:08:42;7.27;;;6.77;;
3000;SDS011;1510;51.072;6.678;2022-09-06T06:11:09;7.43;;;6.93;;
3000;SDS011;1510;51.072;6.678;2022-09-06T06:13:38;8.10;;;7.60;;
3000;SDS011;1510;51.072;6.678;2022-09-06T06:16:05;7.73;;;7.23;;
3000;SDS011;1510;51.072;6.678;2022-09-06T06:18:32;8.47;;;7.97;;
3000;SDS011;1510;51.072;6.678;2022-09-06T06:21:09;9.93;;;9.33;;
3000;SDS011;1510;51.072;6.678;2022-09-06T06:23:37;8.70;;;8.20;;
3000;SDS011;1510;51.072;6.678;2022-09-06T06:26:05;8.70;;;8.20;;
3000;SDS011;1510;51.072;6.678;2022-09-06T06:28:32;9.50;;;8.90;;
3000;SDS011;1510;51.072;6.678;2022-09-06T06:31:01;10.27;;;9.67;;
3000;SDS011;1510;51.072;6.678;2022-09-06T06:33:27;9.30;;;8.70;;
3000;SDS011;1510;51.072;6.678;2022-09-06T06:35:58;9.90;;;9.30;;
3000;SDS011;1510;51.072;6.678;2022-09-06T06:38:28;10.20;;;9.60;;
3000;SDS011;1510;51.072;6.678;2022-09-06T06:40:56;10.60;;;10.00;;
3000;SDS011;1510;51.072;6.678;2022-09-06T06:43:22;12.00;;;11.30;;
3000;SDS011;1510;51.072;6.678;2022-09-06T06:45:49;11.20;;;10.60;;
3000;SDS011;1510;51.072;6.678;2022-09-06T06:48:17;12.93;;;12.23;;
3000;SDS011;1510;51.072;6.678;2022-09-06T06:50:45;12.30;;;11.60;;
3000;SDS011;1510;51.072;6.678;2022-09-06T06:53:12;12.03;;;11.40;;
3000;SDS011;1510;51.072;6.678;2022-09-06T06:55:38;12.40;;;11.70;;
3000;SDS011;1510;51.072;6.678;2022-09-06T06:58:10;12.37;;;11.67;;
3000;SDS011;1510;51.072;6.678;2022-09-06T07:00:36;13.20;;;12.50;;
3000;SDS011;1510;51.072;6.678;2022-09-06T07:03:04;12.10;;;11.40;;
3000;SDS011;1510;51.072;6.678;2022-09-06T07:05:33;12.63;;;11.93;;
3000;SDS011;1510;51.072;6.678;2022-09-06T07:08:00;11.50;;;10.90;;
3000;SDS011;1510;51.072;6.678;2022-09-06T07:10:27;11.73;;;11.13;;
3000;SDS011;1510;51.072;6.678;2022-09-06T07:12:53;11.90;;;11.30;;
3000;SDS011;1510;51.072;6.678;2022-09-06T07:15:20;11.60;;;11.00;;
3000;SDS011;1510;51.072;6.678;2022-09-06T07:17:47;11.70;;;11.10;;
3000;SDS011;1510;51.072;6.678;2022-09-06T07:20:14;11.60;;;11.00;;
3000;SDS011;1510;51.072;6.678;2022-09-06T07:22:42;12.13;;;11.43;;
3000;SDS011;1510;51.072;6.678;2022-09-06T07:25:09;11.30;;;10.70;;
3000;SDS011;1510;51.072;6.678;2022-09-06T07:27:37;11.13;;;10.53;;
3000;SDS011;1510;51.072;6.678;2022-09-06T07:30:04;10.50;;;9.90;;
3000;SDS011;1510;51.072;6.678;2022-09-06T07:32:32;10.77;;;10.17;;
3000;SDS011;1510;51.072;6.678;2022-09-06T07:34:59;11.13;;;10.53;;
3000;SDS011;1510;51.072;6.678;2022-09-06T07:37:26;11.30;;;10.70;;
3000;SDS011;1510;51.072;6.678;2022-09-06T07:39:54;10.80;;;10.20;;
3000;SDS011;1510;51.072;6.678;2022-09-06T07:42:21;10.27;;;9.67;;
3000;SDS011;1510;51.072;6.678;2022-09-06T07:44:47;9.07;;;8.47;;
3000;SDS011;1510;51.072;6.678;2022-09-06T07:47:14;8.77;;;8.20;;
3000;SDS011;1510;51.072;6.678;2022-09-06T07:49:41;8.00;;;7.50;;
3000;SDS011;1510;51.072;6.678;2022-09-06T07:52:08;7.70;;;7.20;;
3000;SDS011;1510;51.072;6.678;2022-09-06T07:54:35;6.90;;;6.40;;
3000;SDS011;1510;51.072;6.678;2022-09-06T07:57:03;9.57;;;8.87;;
3000;SDS011;1510;51.072;6.678;2022-09-06T07:59:30;13.17;;;12.47;;
3000;SDS011;1510;51.072;6.678;2022-09-06T08:01:57;16.20;;;15.40;;
3000;SDS011;1510;51.072;6.678;2022-09-06T08:04:24;20.20;;;19.30;;
3000;SDS011;1510;51.072;6.678;2022-09-06T08:06:50;19.30;;;18.40;;
3000;SDS011;1510;51.072;6.678;2022-09-06T08:09:17;6.10;;;5.60;;
3000;SDS011;1510;51.072;6.678;2022-09-06T08:11:44;4.43;;;4.03;;
3000;SDS011;1510;51.072;6.678;2022-09-06T08:14:13;3.70;;;2.40;;
3000;SDS011;1510;51.072;6.678;2022-09-06T08:16:39;4.10;;;3.60;;
3000;SDS011;1510;51.072;6.678;2022-09-06T08:19:06;3.40;;;1.57;;
3000;SDS011;1510;51.072;6.678;2022-09-06T08:21:34;3.20;;;0.80;;
3000;SDS011;1510;51.072;6.678;2022-09-06T08:24:02;3.10;;;0.60;;
3000;SDS011;1510;51.072;6.678;2022-09-06T08:26:30;3.10;;;0.60;;
3000;SDS011;1510;51.072;6.678;2022-09-06T08:28:58;3.10;;;0.80;;
3000;SDS011;1510;51.072;6.678;2022-09-06T08:31:28;3.10;;;0.60;;
3000;SDS011;1510;51.072;6.678;2022-09-06T08:33:56;3.60;;;1.13;;
3000;SDS011;1510;51.072;6.678;2022-09-06T08:36:24;3.10;;;0.60;;
3000;SDS011;1510;51.072;6.678;2022-09-06T08:38:53;3.17;;;0.70;;
3000;SDS011;1510;51.072;6.678;2022-09-06T08:41:22;3.30;;;0.80;;
3000;SDS011;1510;51.072;6.678;2022-09-06T08:43:52;3.10;;;0.57;;
3000;SDS011;1510;51.072;6.678;2022-09-06T08:46:21;3.30;;;0.80;;
3000;SDS011;1510;51.072;6.678;2022-09-06T08:48:54;3.40;;;1.07;;
3000;SDS011;1510;51.072;6.678;2022-09-06T08:51:29;3.23;;;0.60;;
3000;SDS011;1510;51.072;6.678;2022-09-06T08:54:23;3.37;;;0.70;;
3000;SDS011;1510;51.072;6.678;2022-09-06T08:57:00;3.20;;;0.50;;
3000;SDS011;1510;51.072;6.678;2022-09-06T08:59:33;3.37;;;1.00;;
3000;SDS011;1510;51.072;6.678;2022-09-06T09:02:08;3.23;;;0.60;;
3000;SDS011;1510;51.072;6.678;2022-09-06T09:04:39;3.23;;;0.53;;
3000;SDS011;1510;51.072;6.678;2022-09-06T09:07:13;3.30;;;0.60;;
3000;SDS011;1510;51.072;6.678;2022-09-06T09:09:51;3.20;;;0.50;;
3000;SDS011;1510;51.072;6.678;2022-09-06T09:12:20;3.30;;;0.60;;
3000;SDS011;1510;51.072;6.678;2022-09-06T09:14:49;3.50;;;0.97;;
3000;SDS011;1510;51.072;6.678;2022-09-06T09:17:23;3.30;;;0.53;;
3000;SDS011;1510;51.072;6.678;2022-09-06T09:19:53;3.27;;;0.50;;
3000;SDS011;1510;51.072;6.678;2022-09-06T09:22:21;3.30;;;0.50;;
3000;SDS011;1510;51.072;6.678;2022-09-06T09:24:49;4.10;;;1.37;;
3000;SDS011;1510;51.072;6.678;2022-09-06T09:27:18;3.33;;;0.60;;
3000;SDS011;1510;51.072;6.678;2022-09-06T09:29:56;3.33;;;0.57;;
3000;SDS011;1510;51.072;6.678;2022-09-06T09:32:28;3.40;;;0.80;;
3000;SDS011;1510;51.072;6.678;2022-09-06T09:35:05;3.30;;;0.60;;
3000;SDS011;1510;51.072;6.678;2022-09-06T09:37:41;3.30;;;0.60;;
3000;SDS011;1510;51.072;6.678;2022-09-06T09:40:12;3.30;;;0.50;;
3000;SDS011;1510;51.072;6.678;2022-09-06T09:42:39;3.30;;;0.50;;
3000;SDS011;1510;51.072;6.678;2022-09-06T09:45:21;3.87;;;1.17;;
3000;SDS011;1510;51.072;6.678;2022-09-06T09:47:50;3.30;;;0.50;;
3000;SDS011;1510;51.072;6.678;2022-09-06T09:50:25;3.40;;;0.50;;
3000;SDS011;1510;51.072;6.678;2022-09-06T09:53:00;3.40;;;0.60;;
3000;SDS011;1510;51.072;6.678;2022-09-06T09:55:32;3.40;;;0.50;;
3000;SDS011;1510;51.072;6.678;2022-09-06T09:57:59;3.40;;;0.50;;
3000;SDS011;1510;51.072;6.678;2022-09-06T10:00:32;3.43;;;0.60;;
3000;SDS011;1510;51.072;6.678;2022-09-06T10:03:10;3.40;;;0.50;;
3000;SDS011;1510;51.072;6.678;2022-09-06T10:05:39;3.40;;;0.50;;
3000;SDS011;1510;51.072;6.678;2022-09-06T10:08:08;3.40;;;0.50;;
3000;SDS011;1510;51.072;6.678;2022-09-06T10:10:38;3.40;;;0.50;;
3000;SDS011;1510;51.072;6.678;2022-09-06T10:13:07;3.60;;;0.90;;
3000;SDS011;1510;51.072;6.678;2022-09-06T10:15:44;3.40;;;0.60;;
3000;SDS011;1510;51.072;6.678;2022-09-06T10:18:14;3.40;;;0.50;;
3000;SDS011;1510;51.072;6.678;2022-09-06T10:20:54;3.40;;;0.50;;
3000;SDS011;1510;51.072;6.678;2022-09-06T10:23:27;3.40;;;0.50;;
3000;SDS011;1510;51.072;6.678;2022-09-06T10:26:03;3.40;;;0.50;;
3000;SDS011;1510;51.072;6.678;2022-09-06T10:28:33;3.60;;;0.90;;
3000;SDS011;1510;51.072;6.678;2022-09-06T10:31:11;3.40;;;0.50;;
3000;SDS011;1510;51.072;6.678;2022-09-06T10:33:58;3.40;;;0.50;;
3000;SDS011;1510;51.072;6.678;2022-09-06T10:36:34;3.40;;;0.50;;
3000;SDS011;1510;51.072;6.678;2022-09-06T10:39:03;3.70;;;0.70;;
3000;SDS011;1510;51.072;6.678;2022-09-06T10:41:44;3.50;;;0.63;;
3000;SDS011;1510;51.072;6.678;2022-09-06T10:44:26;3.50;;;0.70;;
3000;SDS011;1510;51.072;6.678;2022-09-06T10:47:05;3.40;;;0.50;;
3000;SDS011;1510;51.072;6.678;2022-09-06T10:49:37;3.40;;;0.60;;
3000;SDS011;1510;51.072;6.678;2022-09-06T10:56:00;3.40;;;0.50;;
3000;SDS011;1510;51.072;6.678;2022-09-06T10:58:52;3.50;;;0.50;;
3000;SDS011;1510;51.072;6.678;2022-09-06T11:01:33;3.43;;;0.50;;
3000;SDS011;1510;51.072;6.678;2022-09-06T11:04:10;3.40;;;0.50;;
3000;SDS011;1510;51.072;6.678;2022-09-06T11:06:44;3.47;;;0.50;;
3000;SDS011;1510;51.072;6.678;2022-09-06T11:09:18;3.40;;;0.50;;
3000;SDS011;1510;51.072;6.678;2022-09-06T11:11:56;3.47;;;0.60;;
3000;SDS011;1510;51.072;6.678;2022-09-06T11:14:32;3.43;;;0.60;;
3000;SDS011;1510;51.072;6.678;2022-09-06T11:17:01;3.40;;;0.50;;
3000;SDS011;1510;51.072;6.678;2022-09-06T11:19:35;3.43;;;0.50;;
3000;SDS011;1510;51.072;6.678;2022-09-06T11:22:09;6.83;;;1.90;;
3000;SDS011;1510;51.072;6.678;2022-09-06T11:25:00;5.70;;;2.40;;
3000;SDS011;1510;51.072;6.678;2022-09-06T11:27:52;7.87;;;2.10;;
3000;SDS011;1510;51.072;6.678;2022-09-06T11:30:24;6.33;;;2.77;;
3000;SDS011;1510;51.072;6.678;2022-09-06T11:33:05;6.27;;;2.60;;
3000;SDS011;1510;51.072;6.678;2022-09-06T11:36:13;6.80;;;2.13;;
3000;SDS011;1510;51.072;6.678;2022-09-06T11:39:01;5.90;;;1.90;;
3000;SDS011;1510;51.072;6.678;2022-09-06T11:41:38;7.33;;;2.63;;
3000;SDS011;1510;51.072;6.678;2022-09-06T11:44:49;6.10;;;2.00;;
3000;SDS011;1510;51.072;6.678;2022-09-06T11:47:34;4.30;;;1.73;;
3000;SDS011;1510;51.072;6.678;2022-09-06T11:50:21;7.57;;;2.10;;
3000;SDS011;1510;51.072;6.678;2022-09-06T11:53:13;8.53;;;2.07;;
3000;SDS011;1510;51.072;6.678;2022-09-06T11:55:42;6.23;;;1.80;;
3000;SDS011;1510;51.072;6.678;2022-09-06T11:58:18;10.20;;;2.40;;
3000;SDS011;1510;51.072;6.678;2022-09-06T12:04:01;7.10;;;2.40;;
3000;SDS011;1510;51.072;6.678;2022-09-06T12:06:31;9.77;;;2.27;;
3000;SDS011;1510;51.072;6.678;2022-09-06T12:09:00;8.10;;;2.27;;
3000;SDS011;1510;51.072;6.678;2022-09-06T12:11:31;9.20;;;1.93;;
3000;SDS011;1510;51.072;6.678;2022-09-06T12:14:01;5.40;;;1.80;;
3000;SDS011;1510;51.072;6.678;2022-09-06T12:19:41;5.27;;;2.00;;
3000;SDS011;1510;51.072;6.678;2022-09-06T12:28:24;8.27;;;2.30;;
3000;SDS011;1510;51.072;6.678;2022-09-06T12:33:51;5.57;;;1.90;;
3000;SDS011;1510;51.072;6.678;2022-09-06T12:36:21;6.57;;;2.17;;
3000;SDS011;1510;51.072;6.678;2022-09-06T12:38:54;6.37;;;1.77;;
3000;SDS011;1510;51.072;6.678;2022-09-06T12:41:22;5.17;;;2.00;;
3000;SDS011;1510;51.072;6.678;2022-09-06T12:43:49;6.40;;;1.70;;
3000;SDS011;1510;51.072;6.678;2022-09-06T12:46:16;5.53;;;1.80;;
3000;SDS011;1510;51.072;6.678;2022-09-06T12:48:44;5.17;;;1.70;;
3000;SDS011;1510;51.072;6.678;2022-09-06T12:51:30;6.13;;;1.80;;
3000;SDS011;1510;51.072;6.678;2022-09-06T12:53:58;7.83;;;1.80;;
3000;SDS011;1510;51.072;6.678;2022-09-06T12:56:27;10.33;;;2.13;;
3000;SDS011;1510;51.072;6.678;2022-09-06T12:59:11;7.70;;;1.90;;
3000;SDS011;1510;51.072;6.678;2022-09-06T13:01:41;10.00;;;1.90;;
3000;SDS011;1510;51.072;6.678;2022-09-06T13:04:16;6.00;;;1.90;;
3000;SDS011;1510;51.072;6.678;2022-09-06T13:06:49;5.00;;;1.20;;
3000;SDS011;1510;51.072;6.678;2022-09-06T13:09:16;9.60;;;2.43;;
3000;SDS011;1510;51.072;6.678;2022-09-06T13:11:46;4.90;;;2.10;;
3000;SDS011;1510;51.072;6.678;2022-09-06T13:14:16;5.77;;;1.57;;
3000;SDS011;1510;51.072;6.678;2022-09-06T13:16:47;9.83;;;1.87;;
3000;SDS011;1510;51.072;6.678;2022-09-06T13:19:16;10.00;;;1.70;;
3000;SDS011;1510;51.072;6.678;2022-09-06T13:21:56;4.57;;;1.57;;
3000;SDS011;1510;51.072;6.678;2022-09-06T13:24:23;9.23;;;1.50;;
3000;SDS011;1510;51.072;6.678;2022-09-06T13:26:52;6.93;;;1.73;;
3000;SDS011;1510;51.072;6.678;2022-09-06T13:29:23;5.57;;;1.80;;
3000;SDS011;1510;51.072;6.678;2022-09-06T13:31:54;8.57;;;1.60;;
3000;SDS011;1510;51.072;6.678;2022-09-06T13:34:23;5.07;;;1.33;;
3000;SDS011;1510;51.072;6.678;2022-09-06T13:36:52;7.30;;;1.53;;
3000;SDS011;1510;51.072;6.678;2022-09-06T13:39:31;7.07;;;1.40;;
3000;SDS011;1510;51.072;6.678;2022-09-06T13:42:00;6.00;;;1.40;;
3000;SDS011;1510;51.072;6.678;2022-09-06T13:44:28;11.07;;;1.50;;
3000;SDS011;1510;51.072;6.678;2022-09-06T13:46:56;5.17;;;1.50;;
3000;SDS011;1510;51.072;6.678;2022-09-06T13:49:24;5.67;;;1.47;;
3000;SDS011;1510;51.072;6.678;2022-09-06T13:51:52;7.00;;;1.63;;
3000;SDS011;1510;51.072;6.678;2022-09-06T13:54:20;7.87;;;1.67;;
3000;SDS011;1510;51.072;6.678;2022-09-06T13:56:49;4.63;;;1.50;;
3000;SDS011;1510;51.072;6.678;2022-09-06T13:59:16;5.93;;;1.37;;
3000;SDS011;1510;51.072;6.678;2022-09-06T14:01:43;5.60;;;1.67;;
3000;SDS011;1510;51.072;6.678;2022-09-06T14:04:12;12.70;;;1.60;;
3000;SDS011;1510;51.072;6.678;2022-09-06T14:06:43;7.20;;;1.60;;
3000;SDS011;1510;51.072;6.678;2022-09-06T14:09:10;6.23;;;1.50;;
3000;SDS011;1510;51.072;6.678;2022-09-06T14:11:37;6.10;;;1.37;;
3000;SDS011;1510;51.072;6.678;2022-09-06T14:14:05;6.83;;;1.37;;
3000;SDS011;1510;51.072;6.678;2022-09-06T14:16:33;5.40;;;1.60;;
3000;SDS011;1510;51.072;6.678;2022-09-06T14:19:00;6.87;;;1.53;;
3000;SDS011;1510;51.072;6.678;2022-09-06T14:21:27;5.53;;;1.47;;
3000;SDS011;1510;51.072;6.678;2022-09-06T14:23:54;7.13;;;1.50;;
3000;SDS011;1510;51.072;6.678;2022-09-06T14:26:22;4.73;;;1.50;;
3000;SDS011;1510;51.072;6.678;2022-09-06T14:28:49;5.47;;;1.27;;
3000;SDS011;1510;51.072;6.678;2022-09-06T14:31:20;4.70;;;1.20;;
3000;SDS011;1510;51.072;6.678;2022-09-06T14:33:56;4.57;;;1.13;;
3000;SDS011;1510;51.072;6.678;2022-09-06T14:36:24;9.00;;;1.37;;
3000;SDS011;1510;51.072;6.678;2022-09-06T14:39:02;4.37;;;1.10;;
3000;SDS011;1510;51.072;6.678;2022-09-06T14:41:31;8.37;;;1.37;;
3000;SDS011;1510;51.072;6.678;2022-09-06T14:43:58;5.77;;;1.40;;
3000;SDS011;1510;51.072;6.678;2022-09-06T14:46:27;4.40;;;1.00;;
3000;SDS011;1510;51.072;6.678;2022-09-06T14:48:55;4.57;;;1.60;;
3000;SDS011;1510;51.072;6.678;2022-09-06T14:51:22;7.60;;;1.67;;
3000;SDS011;1510;51.072;6.678;2022-09-06T14:53:50;4.43;;;1.20;;
3000;SDS011;1510;51.072;6.678;2022-09-06T14:56:18;4.27;;;1.30;;
3000;SDS011;1510;51.072;6.678;2022-09-06T14:58:45;4.10;;;1.27;;
3000;SDS011;1510;51.072;6.678;2022-09-06T15:01:15;9.57;;;1.70;;
3000;SDS011;1510;51.072;6.678;2022-09-06T15:03:44;6.87;;;1.67;;
3000;SDS011;1510;51.072;6.678;2022-09-06T15:06:16;9.40;;;1.30;;
3000;SDS011;1510;51.072;6.678;2022-09-06T15:08:43;4.60;;;1.60;;
3000;SDS011;1510;51.072;6.678;2022-09-06T15:11:25;5.90;;;1.70;;
3000;SDS011;1510;51.072;6.678;2022-09-06T15:13:54;5.33;;;1.40;;
3000;SDS011;1510;51.072;6.678;2022-09-06T15:16:21;4.60;;;1.73;;
3000;SDS011;1510;51.072;6.678;2022-09-06T15:18:49;5.40;;;1.70;;
3000;SDS011;1510;51.072;6.678;2022-09-06T15:21:16;5.00;;;1.57;;
3000;SDS011;1510;51.072;6.678;2022-09-06T15:23:43;4.37;;;1.27;;
3000;SDS011;1510;51.072;6.678;2022-09-06T15:26:10;4.20;;;1.40;;
3000;SDS011;1510;51.072;6.678;2022-09-06T15:28:41;7.10;;;1.30;;
3000;SDS011;1510;51.072;6.678;2022-09-06T15:31:08;9.37;;;1.50;;
3000;SDS011;1510;51.072;6.678;2022-09-06T15:33:36;4.33;;;1.53;;
3000;SDS011;1510;51.072;6.678;2022-09-06T15:36:05;8.87;;;1.70;;
3000;SDS011;1510;51.072;6.678;2022-09-06T15:38:34;7.43;;;1.30;;
3000;SDS011;1510;51.072;6.678;2022-09-06T15:41:02;7.67;;;1.67;;
3000;SDS011;1510;51.072;6.678;2022-09-06T15:43:31;7.63;;;1.53;;
3000;SDS011;1510;51.072;6.678;2022-09-06T15:45:57;4.20;;;1.10;;
3000;SDS011;1510;51.072;6.678;2022-09-06T15:48:24;7.13;;;2.43;;
3000;SDS011;1510;51.072;6.678;2022-09-06T15:50:51;4.50;;;1.20;;
3000;SDS011;1510;51.072;6.678;2022-09-06T15:53:19;5.07;;;1.07;;